sensor_id;sensor_type;location;lat;lon;timestamp;P1;durP1;ratioP1;P2;durP2;ratioP2
4547;SDS011;2286;51.570;7.090;2023-02-15T00:01:09;27.80;;;20.50;;
4547;SDS011;2286;51.570;7.090;2023-02-15T00:03:37;31.00;;;20.97;;
4547;SDS011;2286;51.570;7.090;2023-02-15T00:06:04;28.33;;;19.30;;
4547;SDS011;2286;51.570;7.090;2023-02-15T00:08:31;29.87;;;21.67;;
4547;SDS011;2286;51.570;7.090;2023-02-15T00:11:05;26.97;;;20.80;;
4547;SDS011;2286;51.570;7.090;2023-02-15T00:13:33;28.73;;;21.07;;
4547;SDS011;2286;51.570;7.090;2023-02-15T00:16:04;31.10;;;21.60;;
4547;SDS011;2286;51.570;7.090;2023-02-15T00:18:32;28.08;;;20.05;;
4547;SDS011;2286;51.570;7.090;2023-02-15T00:21:02;28.33;;;19.48;;
4547;SDS011;2286;51.570;7.090;2023-02-15T00:23:30;28.48;;;21.20;;
4547;SDS011;2286;51.570;7.090;2023-02-15T00:26:05;28.47;;;21.13;;
4547;SDS011;2286;51.570;7.090;2023-02-15T00:28:34;29.20;;;22.20;;
4547;SDS011;2286;51.570;7.090;2023-02-15T00:31:02;36.95;;;23.10;;
4547;SDS011;2286;51.570;7.090;2023-02-15T00:33:30;28.30;;;21.13;;
4547;SDS011;2286;51.570;7.090;2023-02-15T00:35:57;28.35;;;20.75;;
4547;SDS011;2286;51.570;7.090;2023-02-15T00:38:25;30.90;;;21.27;;
4547;SDS011;2286;51.570;7.090;2023-02-15T00:40:53;30.33;;;21.55;;
4547;SDS011;2286;51.570;7.090;2023-02-15T00:43:20;26.20;;;20.17;;
4547;SDS011;2286;51.570;7.090;2023-02-15T00:45:49;29.50;;;19.23;;
4547;SDS011;2286;51.570;7.090;2023-02-15T00:48:16;29.75;;;21.48;;
4547;SDS011;2286;51.570;7.090;2023-02-15T00:50:44;27.63;;;20.40;;
4547;SDS011;2286;51.570;7.090;2023-02-15T00:53:11;25.50;;;20.42;;
4547;SDS011;2286;51.570;7.090;2023-02-15T00:55:38;30.70;;;20.73;;
4547;SDS011;2286;51.570;7.090;2023-02-15T00:58:05;29.15;;;21.55;;
4547;SDS011;2286;51.570;7.090;2023-02-15T01:00:33;29.83;;;20.77;;
4547;SDS011;2286;51.570;7.090;2023-02-15T01:03:01;27.43;;;20.17;;
4547;SDS011;2286;51.570;7.090;2023-02-15T01:05:29;31.95;;;21.13;;
4547;SDS011;2286;51.570;7.090;2023-02-15T01:07:57;30.90;;;21.53;;
4547;SDS011;2286;51.570;7.090;2023-02-15T01:10:24;27.38;;;21.52;;
4547;SDS011;2286;51.570;7.090;2023-02-15T01:12:52;30.20;;;23.02;;
4547;SDS011;2286;51.570;7.090;2023-02-15T01:15:20;32.05;;;22.25;;
4547;SDS011;2286;51.570;7.090;2023-02-15T01:17:47;33.70;;;22.33;;
4547;SDS011;2286;51.570;7.090;2023-02-15T01:20:19;29.65;;;21.52;;
4547;SDS011;2286;51.570;7.090;2023-02-15T01:32:55;28.38;;;21.20;;
4547;SDS011;2286;51.570;7.090;2023-02-15T01:35:24;28.80;;;21.55;;
4547;SDS011;2286;51.570;7.090;2023-02-15T01:37:51;35.90;;;24.17;;
4547;SDS011;2286;51.570;7.090;2023-02-15T01:40:18;32.08;;;23.20;;
4547;SDS011;2286;51.570;7.090;2023-02-15T01:42:49;30.52;;;22.38;;
4547;SDS011;2286;51.570;7.090;2023-02-15T01:45:21;31.77;;;22.23;;
4547;SDS011;2286;51.570;7.090;2023-02-15T01:47:51;31.60;;;22.87;;
4547;SDS011;2286;51.570;7.090;2023-02-15T01:50:24;33.40;;;22.73;;
4547;SDS011;2286;51.570;7.090;2023-02-15T01:52:57;30.60;;;21.30;;
4547;SDS011;2286;51.570;7.090;2023-02-15T01:55:30;29.80;;;23.05;;
4547;SDS011;2286;51.570;7.090;2023-02-15T01:58:00;27.73;;;21.08;;
4547;SDS011;2286;51.570;7.090;2023-02-15T02:00:28;29.27;;;23.23;;
4547;SDS011;2286;51.570;7.090;2023-02-15T02:02:55;32.83;;;24.17;;
4547;SDS011;2286;51.570;7.090;2023-02-15T02:05:25;27.60;;;21.67;;
4547;SDS011;2286;51.570;7.090;2023-02-15T02:07:53;28.83;;;21.48;;
4547;SDS011;2286;51.570;7.090;2023-02-15T02:10:23;27.98;;;22.05;;
4547;SDS011;2286;51.570;7.090;2023-02-15T02:12:51;25.08;;;20.30;;
4547;SDS011;2286;51.570;7.090;2023-02-15T02:15:21;26.35;;;21.38;;
4547;SDS011;2286;51.570;7.090;2023-02-15T02:17:56;32.83;;;21.85;;
4547;SDS011;2286;51.570;7.090;2023-02-15T02:20:55;36.78;;;22.77;;
4547;SDS011;2286;51.570;7.090;2023-02-15T02:23:40;30.63;;;22.52;;
4547;SDS011;2286;51.570;7.090;2023-02-15T02:26:47;29.58;;;21.52;;
4547;SDS011;2286;51.570;7.090;2023-02-15T02:29:53;29.33;;;21.38;;
4547;SDS011;2286;51.570;7.090;2023-02-15T02:35:37;30.40;;;21.35;;
4547;SDS011;2286;51.570;7.090;2023-02-15T02:38:10;33.95;;;22.65;;
4547;SDS011;2286;51.570;7.090;2023-02-15T02:40:48;29.48;;;21.15;;
4547;SDS011;2286;51.570;7.090;2023-02-15T02:43:22;30.52;;;23.45;;
4547;SDS011;2286;51.570;7.090;2023-02-15T02:45:55;29.70;;;21.55;;
4547;SDS011;2286;51.570;7.090;2023-02-15T02:48:29;29.02;;;22.63;;
4547;SDS011;2286;51.570;7.090;2023-02-15T02:50:58;29.15;;;21.20;;
4547;SDS011;2286;51.570;7.090;2023-02-15T02:53:26;29.67;;;21.92;;
4547;SDS011;2286;51.570;7.090;2023-02-15T02:55:57;33.47;;;22.10;;
4547;SDS011;2286;51.570;7.090;2023-02-15T02:58:31;30.95;;;23.83;;
4547;SDS011;2286;51.570;7.090;2023-02-15T03:01:06;33.63;;;23.98;;
4547;SDS011;2286;51.570;7.090;2023-02-15T03:03:41;35.22;;;23.92;;
4547;SDS011;2286;51.570;7.090;2023-02-15T03:06:12;33.55;;;24.67;;
4547;SDS011;2286;51.570;7.090;2023-02-15T03:08:44;33.35;;;24.63;;
4547;SDS011;2286;51.570;7.090;2023-02-15T03:11:14;34.55;;;25.35;;
4547;SDS011;2286;51.570;7.090;2023-02-15T03:13:42;33.67;;;25.92;;
4547;SDS011;2286;51.570;7.090;2023-02-15T03:16:11;32.88;;;24.73;;
4547;SDS011;2286;51.570;7.090;2023-02-15T03:18:54;33.67;;;24.55;;
4547;SDS011;2286;51.570;7.090;2023-02-15T03:21:27;32.45;;;23.98;;
4547;SDS011;2286;51.570;7.090;2023-02-15T03:23:59;31.55;;;22.95;;
4547;SDS011;2286;51.570;7.090;2023-02-15T03:26:31;31.38;;;23.75;;
4547;SDS011;2286;51.570;7.090;2023-02-15T03:29:00;34.30;;;24.63;;
4547;SDS011;2286;51.570;7.090;2023-02-15T03:31:31;37.28;;;24.83;;
4547;SDS011;2286;51.570;7.090;2023-02-15T03:34:03;38.42;;;27.55;;
4547;SDS011;2286;51.570;7.090;2023-02-15T03:36:34;40.70;;;25.85;;
4547;SDS011;2286;51.570;7.090;2023-02-15T03:39:10;31.50;;;24.00;;
4547;SDS011;2286;51.570;7.090;2023-02-15T03:41:45;34.88;;;24.90;;
4547;SDS011;2286;51.570;7.090;2023-02-15T03:44:18;35.45;;;25.60;;
4547;SDS011;2286;51.570;7.090;2023-02-15T03:46:51;34.65;;;24.85;;
4547;SDS011;2286;51.570;7.090;2023-02-15T03:49:24;38.13;;;27.58;;
4547;SDS011;2286;51.570;7.090;2023-02-15T03:51:55;31.70;;;23.95;;
4547;SDS011;2286;51.570;7.090;2023-02-15T03:54:25;37.65;;;26.75;;
4547;SDS011;2286;51.570;7.090;2023-02-15T03:57:12;37.50;;;23.98;;
4547;SDS011;2286;51.570;7.090;2023-02-15T03:59:59;32.70;;;24.13;;
4547;SDS011;2286;51.570;7.090;2023-02-15T04:02:49;36.53;;;25.10;;
4547;SDS011;2286;51.570;7.090;2023-02-15T04:05:26;33.20;;;23.95;;
4547;SDS011;2286;51.570;7.090;2023-02-15T04:07:53;28.92;;;24.75;;
4547;SDS011;2286;51.570;7.090;2023-02-15T04:10:20;37.75;;;25.58;;
4547;SDS011;2286;51.570;7.090;2023-02-15T04:13:05;31.83;;;24.25;;
4547;SDS011;2286;51.570;7.090;2023-02-15T04:15:32;38.15;;;25.90;;
4547;SDS011;2286;51.570;7.090;2023-02-15T04:18:17;34.47;;;25.25;;
4547;SDS011;2286;51.570;7.090;2023-02-15T04:20:45;33.58;;;25.20;;
4547;SDS011;2286;51.570;7.090;2023-02-15T04:23:30;37.50;;;26.88;;
4547;SDS011;2286;51.570;7.090;2023-02-15T04:26:15;36.92;;;25.98;;
4547;SDS011;2286;51.570;7.090;2023-02-15T04:28:43;35.47;;;26.83;;
4547;SDS011;2286;51.570;7.090;2023-02-15T04:31:10;41.15;;;27.88;;
4547;SDS011;2286;51.570;7.090;2023-02-15T04:33:37;37.53;;;26.80;;
4547;SDS011;2286;51.570;7.090;2023-02-15T04:36:06;40.78;;;28.95;;
4547;SDS011;2286;51.570;7.090;2023-02-15T04:38:33;41.75;;;27.17;;
4547;SDS011;2286;51.570;7.090;2023-02-15T04:41:01;37.45;;;26.35;;
4547;SDS011;2286;51.570;7.090;2023-02-15T04:43:28;38.22;;;27.13;;
4547;SDS011;2286;51.570;7.090;2023-02-15T04:45:55;38.20;;;28.52;;
4547;SDS011;2286;51.570;7.090;2023-02-15T04:48:23;36.38;;;25.15;;
4547;SDS011;2286;51.570;7.090;2023-02-15T04:50:51;39.50;;;27.98;;
4547;SDS011;2286;51.570;7.090;2023-02-15T04:53:20;35.00;;;25.63;;
4547;SDS011;2286;51.570;7.090;2023-02-15T04:55:47;35.50;;;26.38;;
4547;SDS011;2286;51.570;7.090;2023-02-15T04:58:14;36.65;;;27.63;;
4547;SDS011;2286;51.570;7.090;2023-02-15T05:00:41;36.13;;;26.15;;
4547;SDS011;2286;51.570;7.090;2023-02-15T05:03:08;39.03;;;26.52;;
4547;SDS011;2286;51.570;7.090;2023-02-15T05:05:36;40.97;;;26.77;;
4547;SDS011;2286;51.570;7.090;2023-02-15T05:08:03;40.72;;;30.33;;
4547;SDS011;2286;51.570;7.090;2023-02-15T05:10:32;36.78;;;26.75;;
4547;SDS011;2286;51.570;7.090;2023-02-15T05:12:59;39.90;;;27.85;;
4547;SDS011;2286;51.570;7.090;2023-02-15T05:15:26;41.28;;;27.40;;
4547;SDS011;2286;51.570;7.090;2023-02-15T05:17:53;37.20;;;27.67;;
4547;SDS011;2286;51.570;7.090;2023-02-15T05:20:21;38.88;;;26.85;;
4547;SDS011;2286;51.570;7.090;2023-02-15T05:22:48;44.08;;;29.45;;
4547;SDS011;2286;51.570;7.090;2023-02-15T05:25:19;43.63;;;28.92;;
4547;SDS011;2286;51.570;7.090;2023-02-15T05:28:07;39.55;;;28.73;;
4547;SDS011;2286;51.570;7.090;2023-02-15T05:30:47;40.95;;;27.67;;
4547;SDS011;2286;51.570;7.090;2023-02-15T05:33:16;37.67;;;28.08;;
4547;SDS011;2286;51.570;7.090;2023-02-15T05:35:43;40.58;;;27.75;;
4547;SDS011;2286;51.570;7.090;2023-02-15T05:38:10;40.13;;;27.10;;
4547;SDS011;2286;51.570;7.090;2023-02-15T05:40:38;38.78;;;27.05;;
4547;SDS011;2286;51.570;7.090;2023-02-15T05:43:06;39.13;;;26.83;;
4547;SDS011;2286;51.570;7.090;2023-02-15T05:45:33;41.80;;;26.95;;
4547;SDS011;2286;51.570;7.090;2023-02-15T05:48:01;39.25;;;26.75;;
4547;SDS011;2286;51.570;7.090;2023-02-15T05:50:28;36.20;;;26.50;;
4547;SDS011;2286;51.570;7.090;2023-02-15T05:52:55;37.15;;;25.95;;
4547;SDS011;2286;51.570;7.090;2023-02-15T05:55:23;41.63;;;26.88;;
4547;SDS011;2286;51.570;7.090;2023-02-15T05:57:50;37.95;;;28.17;;
4547;SDS011;2286;51.570;7.090;2023-02-15T06:00:19;42.97;;;29.20;;
4547;SDS011;2286;51.570;7.090;2023-02-15T06:02:46;40.17;;;28.00;;
4547;SDS011;2286;51.570;7.090;2023-02-15T06:05:13;40.20;;;27.05;;
4547;SDS011;2286;51.570;7.090;2023-02-15T06:07:42;41.33;;;28.65;;
4547;SDS011;2286;51.570;7.090;2023-02-15T06:10:10;39.13;;;27.33;;
4547;SDS011;2286;51.570;7.090;2023-02-15T06:12:37;43.08;;;28.80;;
4547;SDS011;2286;51.570;7.090;2023-02-15T06:15:05;46.25;;;32.15;;
4547;SDS011;2286;51.570;7.090;2023-02-15T06:17:34;39.90;;;27.27;;
4547;SDS011;2286;51.570;7.090;2023-02-15T06:20:02;43.92;;;29.52;;
4547;SDS011;2286;51.570;7.090;2023-02-15T06:22:30;40.75;;;28.98;;
4547;SDS011;2286;51.570;7.090;2023-02-15T06:24:57;40.55;;;27.60;;
4547;SDS011;2286;51.570;7.090;2023-02-15T06:27:24;40.92;;;28.83;;
4547;SDS011;2286;51.570;7.090;2023-02-15T06:29:52;42.50;;;28.45;;
4547;SDS011;2286;51.570;7.090;2023-02-15T06:32:19;45.83;;;30.83;;
4547;SDS011;2286;51.570;7.090;2023-02-15T06:34:47;46.03;;;30.05;;
4547;SDS011;2286;51.570;7.090;2023-02-15T06:37:15;45.17;;;30.40;;
4547;SDS011;2286;51.570;7.090;2023-02-15T06:39:42;45.65;;;30.30;;
4547;SDS011;2286;51.570;7.090;2023-02-15T06:42:10;41.22;;;28.98;;
4547;SDS011;2286;51.570;7.090;2023-02-15T06:44:37;48.97;;;31.02;;
4547;SDS011;2286;51.570;7.090;2023-02-15T06:47:04;45.13;;;29.98;;
4547;SDS011;2286;51.570;7.090;2023-02-15T06:49:32;49.58;;;31.33;;
4547;SDS011;2286;51.570;7.090;2023-02-15T06:52:00;45.47;;;31.55;;
4547;SDS011;2286;51.570;7.090;2023-02-15T06:54:28;47.55;;;31.40;;
4547;SDS011;2286;51.570;7.090;2023-02-15T06:56:55;45.95;;;32.88;;
4547;SDS011;2286;51.570;7.090;2023-02-15T06:59:22;80.50;;;35.95;;
4547;SDS011;2286;51.570;7.090;2023-02-15T07:01:50;48.95;;;31.77;;
4547;SDS011;2286;51.570;7.090;2023-02-15T07:04:17;48.25;;;33.65;;
4547;SDS011;2286;51.570;7.090;2023-02-15T07:06:44;52.45;;;33.88;;
4547;SDS011;2286;51.570;7.090;2023-02-15T07:09:13;48.58;;;31.25;;
4547;SDS011;2286;51.570;7.090;2023-02-15T07:11:41;51.05;;;33.90;;
4547;SDS011;2286;51.570;7.090;2023-02-15T07:14:26;46.00;;;31.75;;
4547;SDS011;2286;51.570;7.090;2023-02-15T07:16:53;45.38;;;30.90;;
4547;SDS011;2286;51.570;7.090;2023-02-15T07:19:20;46.65;;;32.10;;
4547;SDS011;2286;51.570;7.090;2023-02-15T07:21:47;43.95;;;29.35;;
4547;SDS011;2286;51.570;7.090;2023-02-15T07:24:16;50.00;;;33.90;;
4547;SDS011;2286;51.570;7.090;2023-02-15T07:26:43;50.85;;;34.13;;
4547;SDS011;2286;51.570;7.090;2023-02-15T07:29:11;53.92;;;32.85;;
4547;SDS011;2286;51.570;7.090;2023-02-15T07:31:38;53.80;;;33.13;;
4547;SDS011;2286;51.570;7.090;2023-02-15T07:34:05;45.38;;;31.35;;
4547;SDS011;2286;51.570;7.090;2023-02-15T07:36:33;42.85;;;31.38;;
4547;SDS011;2286;51.570;7.090;2023-02-15T07:39:00;47.38;;;32.10;;
4547;SDS011;2286;51.570;7.090;2023-02-15T07:41:29;50.75;;;32.08;;
4547;SDS011;2286;51.570;7.090;2023-02-15T07:43:56;43.65;;;31.17;;
4547;SDS011;2286;51.570;7.090;2023-02-15T07:46:23;46.97;;;32.50;;
4547;SDS011;2286;51.570;7.090;2023-02-15T07:48:50;49.92;;;34.92;;
4547;SDS011;2286;51.570;7.090;2023-02-15T07:51:18;54.90;;;35.60;;
4547;SDS011;2286;51.570;7.090;2023-02-15T07:53:45;58.75;;;36.03;;
4547;SDS011;2286;51.570;7.090;2023-02-15T07:56:13;51.90;;;35.40;;
4547;SDS011;2286;51.570;7.090;2023-02-15T07:58:42;57.50;;;39.25;;
4547;SDS011;2286;51.570;7.090;2023-02-15T08:01:21;54.42;;;37.95;;
4547;SDS011;2286;51.570;7.090;2023-02-15T08:03:50;50.45;;;35.67;;
4547;SDS011;2286;51.570;7.090;2023-02-15T08:06:18;53.30;;;36.78;;
4547;SDS011;2286;51.570;7.090;2023-02-15T08:08:45;53.40;;;39.58;;
4547;SDS011;2286;51.570;7.090;2023-02-15T08:11:16;56.47;;;38.42;;
4547;SDS011;2286;51.570;7.090;2023-02-15T08:14:03;57.53;;;39.47;;
4547;SDS011;2286;51.570;7.090;2023-02-15T08:16:32;58.30;;;39.10;;
4547;SDS011;2286;51.570;7.090;2023-02-15T08:19:02;59.28;;;40.03;;
4547;SDS011;2286;51.570;7.090;2023-02-15T08:21:31;58.80;;;38.65;;
4547;SDS011;2286;51.570;7.090;2023-02-15T08:23:59;56.60;;;38.95;;
4547;SDS011;2286;51.570;7.090;2023-02-15T08:26:27;56.20;;;37.60;;
4547;SDS011;2286;51.570;7.090;2023-02-15T08:28:55;57.92;;;38.95;;
4547;SDS011;2286;51.570;7.090;2023-02-15T08:31:24;56.60;;;40.00;;
4547;SDS011;2286;51.570;7.090;2023-02-15T08:33:52;59.90;;;41.67;;
4547;SDS011;2286;51.570;7.090;2023-02-15T08:36:21;57.20;;;39.53;;
4547;SDS011;2286;51.570;7.090;2023-02-15T08:38:50;56.83;;;41.75;;
4547;SDS011;2286;51.570;7.090;2023-02-15T08:41:18;58.10;;;40.40;;
4547;SDS011;2286;51.570;7.090;2023-02-15T08:43:47;50.35;;;36.35;;
4547;SDS011;2286;51.570;7.090;2023-02-15T08:46:16;59.70;;;42.07;;
4547;SDS011;2286;51.570;7.090;2023-02-15T08:48:45;54.83;;;39.45;;
4547;SDS011;2286;51.570;7.090;2023-02-15T08:51:13;57.10;;;39.17;;
4547;SDS011;2286;51.570;7.090;2023-02-15T08:53:42;52.65;;;37.53;;
4547;SDS011;2286;51.570;7.090;2023-02-15T08:56:14;53.33;;;38.70;;
4547;SDS011;2286;51.570;7.090;2023-02-15T08:58:41;53.20;;;38.63;;
4547;SDS011;2286;51.570;7.090;2023-02-15T09:01:09;49.17;;;37.67;;
4547;SDS011;2286;51.570;7.090;2023-02-15T09:03:38;51.93;;;36.20;;
4547;SDS011;2286;51.570;7.090;2023-02-15T09:06:07;49.90;;;35.43;;
4547;SDS011;2286;51.570;7.090;2023-02-15T09:08:34;45.58;;;33.70;;
4547;SDS011;2286;51.570;7.090;2023-02-15T09:11:05;45.97;;;32.60;;
4547;SDS011;2286;51.570;7.090;2023-02-15T09:13:34;42.53;;;32.23;;
4547;SDS011;2286;51.570;7.090;2023-02-15T09:16:02;42.80;;;31.43;;
4547;SDS011;2286;51.570;7.090;2023-02-15T09:18:31;38.73;;;30.17;;
4547;SDS011;2286;51.570;7.090;2023-02-15T09:21:04;41.43;;;30.87;;
4547;SDS011;2286;51.570;7.090;2023-02-15T09:23:34;40.53;;;30.13;;
4547;SDS011;2286;51.570;7.090;2023-02-15T09:26:03;38.33;;;30.87;;
4547;SDS011;2286;51.570;7.090;2023-02-15T09:28:32;40.80;;;30.73;;
4547;SDS011;2286;51.570;7.090;2023-02-15T09:31:08;39.63;;;31.77;;
4547;SDS011;2286;51.570;7.090;2023-02-15T09:33:37;42.07;;;29.30;;
4547;SDS011;2286;51.570;7.090;2023-02-15T09:36:13;37.27;;;28.77;;
4547;SDS011;2286;51.570;7.090;2023-02-15T09:38:42;37.00;;;29.13;;
4547;SDS011;2286;51.570;7.090;2023-02-15T09:41:20;34.63;;;27.13;;
4547;SDS011;2286;51.570;7.090;2023-02-15T09:43:59;40.23;;;30.23;;
4547;SDS011;2286;51.570;7.090;2023-02-15T09:46:36;38.40;;;28.30;;
4547;SDS011;2286;51.570;7.090;2023-02-15T09:49:12;34.00;;;26.60;;
4547;SDS011;2286;51.570;7.090;2023-02-15T09:51:55;30.47;;;23.20;;
4547;SDS011;2286;51.570;7.090;2023-02-15T09:54:41;34.27;;;23.77;;
4547;SDS011;2286;51.570;7.090;2023-02-15T09:57:25;37.23;;;24.23;;
4547;SDS011;2286;51.570;7.090;2023-02-15T10:00:01;32.67;;;22.33;;
4547;SDS011;2286;51.570;7.090;2023-02-15T10:02:44;30.40;;;22.33;;
4547;SDS011;2286;51.570;7.090;2023-02-15T10:05:23;30.63;;;21.20;;
4547;SDS011;2286;51.570;7.090;2023-02-15T10:08:01;31.17;;;22.53;;
4547;SDS011;2286;51.570;7.090;2023-02-15T10:10:42;26.73;;;20.93;;
4547;SDS011;2286;51.570;7.090;2023-02-15T10:13:20;29.40;;;22.20;;
4547;SDS011;2286;51.570;7.090;2023-02-15T10:16:01;30.23;;;21.10;;
4547;SDS011;2286;51.570;7.090;2023-02-15T10:18:50;32.97;;;21.30;;
4547;SDS011;2286;51.570;7.090;2023-02-15T10:21:29;37.00;;;23.20;;
4547;SDS011;2286;51.570;7.090;2023-02-15T10:26:54;29.80;;;22.00;;
4547;SDS011;2286;51.570;7.090;2023-02-15T10:29:28;28.10;;;23.27;;
4547;SDS011;2286;51.570;7.090;2023-02-15T10:32:04;32.47;;;22.87;;
4547;SDS011;2286;51.570;7.090;2023-02-15T10:34:42;25.97;;;20.93;;
4547;SDS011;2286;51.570;7.090;2023-02-15T10:40:10;26.60;;;19.90;;
4547;SDS011;2286;51.570;7.090;2023-02-15T10:42:53;22.90;;;20.50;;
4547;SDS011;2286;51.570;7.090;2023-02-15T10:45:35;23.33;;;19.57;;
4547;SDS011;2286;51.570;7.090;2023-02-15T10:48:16;22.73;;;20.00;;
4547;SDS011;2286;51.570;7.090;2023-02-15T10:50:53;23.03;;;19.30;;
4547;SDS011;2286;51.570;7.090;2023-02-15T10:53:33;30.17;;;21.43;;
4547;SDS011;2286;51.570;7.090;2023-02-15T10:56:20;26.23;;;21.90;;
4547;SDS011;2286;51.570;7.090;2023-02-15T11:01:51;27.33;;;20.30;;
4547;SDS011;2286;51.570;7.090;2023-02-15T11:04:34;26.93;;;20.77;;
4547;SDS011;2286;51.570;7.090;2023-02-15T11:07:13;25.90;;;19.23;;
4547;SDS011;2286;51.570;7.090;2023-02-15T11:09:47;25.00;;;18.80;;
4547;SDS011;2286;51.570;7.090;2023-02-15T11:12:16;28.40;;;19.60;;
4547;SDS011;2286;51.570;7.090;2023-02-15T11:14:51;24.60;;;19.40;;
4547;SDS011;2286;51.570;7.090;2023-02-15T11:17:24;24.80;;;19.07;;
4547;SDS011;2286;51.570;7.090;2023-02-15T11:19:56;23.80;;;19.00;;
4547;SDS011;2286;51.570;7.090;2023-02-15T11:22:29;22.93;;;18.90;;
4547;SDS011;2286;51.570;7.090;2023-02-15T11:24:59;28.00;;;19.03;;
4547;SDS011;2286;51.570;7.090;2023-02-15T11:27:29;22.47;;;18.50;;
4547;SDS011;2286;51.570;7.090;2023-02-15T11:30:00;25.50;;;17.50;;
4547;SDS011;2286;51.570;7.090;2023-02-15T11:32:35;19.60;;;17.70;;
4547;SDS011;2286;51.570;7.090;2023-02-15T11:35:10;22.07;;;18.73;;
4547;SDS011;2286;51.570;7.090;2023-02-15T11:37:50;22.63;;;18.37;;
4547;SDS011;2286;51.570;7.090;2023-02-15T11:40:22;26.07;;;18.90;;
4547;SDS011;2286;51.570;7.090;2023-02-15T11:42:51;25.67;;;17.63;;
4547;SDS011;2286;51.570;7.090;2023-02-15T11:45:25;21.27;;;17.73;;
4547;SDS011;2286;51.570;7.090;2023-02-15T11:47:54;19.70;;;16.30;;
4547;SDS011;2286;51.570;7.090;2023-02-15T11:50:22;16.83;;;14.47;;
4547;SDS011;2286;51.570;7.090;2023-02-15T11:52:51;20.33;;;15.00;;
4547;SDS011;2286;51.570;7.090;2023-02-15T11:55:21;17.47;;;13.00;;
4547;SDS011;2286;51.570;7.090;2023-02-15T11:57:52;14.60;;;11.90;;
4547;SDS011;2286;51.570;7.090;2023-02-15T12:00:27;16.87;;;13.00;;
4547;SDS011;2286;51.570;7.090;2023-02-15T12:03:02;14.20;;;12.30;;
4547;SDS011;2286;51.570;7.090;2023-02-15T12:05:34;15.00;;;13.00;;
4547;SDS011;2286;51.570;7.090;2023-02-15T12:08:09;18.73;;;13.67;;
4547;SDS011;2286;51.570;7.090;2023-02-15T12:10:43;14.10;;;12.70;;
4547;SDS011;2286;51.570;7.090;2023-02-15T12:13:19;15.73;;;13.97;;
4547;SDS011;2286;51.570;7.090;2023-02-15T12:15:49;16.73;;;13.53;;
4547;SDS011;2286;51.570;7.090;2023-02-15T12:18:32;17.80;;;13.90;;
4547;SDS011;2286;51.570;7.090;2023-02-15T12:21:02;15.53;;;12.90;;
4547;SDS011;2286;51.570;7.090;2023-02-15T12:23:32;15.23;;;12.07;;
4547;SDS011;2286;51.570;7.090;2023-02-15T12:25:59;15.80;;;12.20;;
4547;SDS011;2286;51.570;7.090;2023-02-15T12:28:30;16.03;;;11.90;;
4547;SDS011;2286;51.570;7.090;2023-02-15T12:31:02;16.40;;;11.00;;
4547;SDS011;2286;51.570;7.090;2023-02-15T12:33:34;11.80;;;10.47;;
4547;SDS011;2286;51.570;7.090;2023-02-15T12:36:03;16.60;;;12.43;;
4547;SDS011;2286;51.570;7.090;2023-02-15T12:38:37;12.97;;;10.87;;
4547;SDS011;2286;51.570;7.090;2023-02-15T12:41:05;13.30;;;10.33;;
4547;SDS011;2286;51.570;7.090;2023-02-15T12:43:49;14.60;;;10.93;;
4547;SDS011;2286;51.570;7.090;2023-02-15T12:46:32;15.10;;;11.07;;
4547;SDS011;2286;51.570;7.090;2023-02-15T12:49:06;11.93;;;10.70;;
4547;SDS011;2286;51.570;7.090;2023-02-15T12:51:44;13.93;;;10.40;;
4547;SDS011;2286;51.570;7.090;2023-02-15T12:54:29;13.33;;;10.90;;
4547;SDS011;2286;51.570;7.090;2023-02-15T12:57:17;14.63;;;11.77;;
4547;SDS011;2286;51.570;7.090;2023-02-15T12:59:52;15.03;;;10.90;;
4547;SDS011;2286;51.570;7.090;2023-02-15T13:02:23;13.37;;;10.63;;
4547;SDS011;2286;51.570;7.090;2023-02-15T13:04:53;13.23;;;11.83;;
4547;SDS011;2286;51.570;7.090;2023-02-15T13:07:21;13.00;;;11.10;;
4547;SDS011;2286;51.570;7.090;2023-02-15T13:09:50;13.87;;;11.67;;
4547;SDS011;2286;51.570;7.090;2023-02-15T13:12:18;12.03;;;10.67;;
4547;SDS011;2286;51.570;7.090;2023-02-15T13:14:49;14.60;;;11.17;;
4547;SDS011;2286;51.570;7.090;2023-02-15T13:17:18;17.07;;;11.63;;
4547;SDS011;2286;51.570;7.090;2023-02-15T13:19:54;13.00;;;11.33;;
4547;SDS011;2286;51.570;7.090;2023-02-15T13:22:25;17.13;;;11.63;;
4547;SDS011;2286;51.570;7.090;2023-02-15T13:24:58;14.50;;;11.63;;
4547;SDS011;2286;51.570;7.090;2023-02-15T13:27:30;13.87;;;11.80;;
4547;SDS011;2286;51.570;7.090;2023-02-15T13:30:02;14.83;;;11.13;;
4547;SDS011;2286;51.570;7.090;2023-02-15T13:32:38;15.03;;;12.63;;
4547;SDS011;2286;51.570;7.090;2023-02-15T13:35:10;14.40;;;11.30;;
4547;SDS011;2286;51.570;7.090;2023-02-15T13:40:42;14.73;;;13.23;;
4547;SDS011;2286;51.570;7.090;2023-02-15T13:43:25;16.00;;;13.23;;
4547;SDS011;2286;51.570;7.090;2023-02-15T13:46:07;17.50;;;12.70;;
4547;SDS011;2286;51.570;7.090;2023-02-15T13:48:50;18.10;;;13.40;;
4547;SDS011;2286;51.570;7.090;2023-02-15T13:51:25;16.10;;;14.50;;
4547;SDS011;2286;51.570;7.090;2023-02-15T13:57:01;14.30;;;12.17;;
4547;SDS011;2286;51.570;7.090;2023-02-15T13:59:56;17.43;;;11.80;;
4547;SDS011;2286;51.570;7.090;2023-02-15T14:05:45;15.33;;;12.47;;
4547;SDS011;2286;51.570;7.090;2023-02-15T14:08:36;18.00;;;14.00;;
4547;SDS011;2286;51.570;7.090;2023-02-15T14:11:12;14.53;;;12.03;;
4547;SDS011;2286;51.570;7.090;2023-02-15T14:13:58;19.00;;;14.40;;
4547;SDS011;2286;51.570;7.090;2023-02-15T14:16:45;16.93;;;14.03;;
4547;SDS011;2286;51.570;7.090;2023-02-15T14:19:21;16.37;;;13.07;;
4547;SDS011;2286;51.570;7.090;2023-02-15T14:21:57;17.20;;;12.63;;
4547;SDS011;2286;51.570;7.090;2023-02-15T14:24:32;18.37;;;13.47;;
4547;SDS011;2286;51.570;7.090;2023-02-15T14:27:06;14.90;;;13.20;;
4547;SDS011;2286;51.570;7.090;2023-02-15T14:29:47;16.17;;;13.00;;
4547;SDS011;2286;51.570;7.090;2023-02-15T14:32:18;18.07;;;14.00;;
4547;SDS011;2286;51.570;7.090;2023-02-15T14:34:53;15.77;;;13.00;;
4547;SDS011;2286;51.570;7.090;2023-02-15T14:37:24;19.10;;;13.43;;
4547;SDS011;2286;51.570;7.090;2023-02-15T14:40:00;17.10;;;14.00;;
4547;SDS011;2286;51.570;7.090;2023-02-15T14:42:51;19.63;;;13.63;;
4547;SDS011;2286;51.570;7.090;2023-02-15T14:45:25;20.43;;;13.40;;
4547;SDS011;2286;51.570;7.090;2023-02-15T14:47:59;17.97;;;12.37;;
4547;SDS011;2286;51.570;7.090;2023-02-15T14:50:41;15.33;;;11.97;;
4547;SDS011;2286;51.570;7.090;2023-02-15T14:56:13;14.70;;;11.63;;
4547;SDS011;2286;51.570;7.090;2023-02-15T15:01:41;14.00;;;11.90;;
4547;SDS011;2286;51.570;7.090;2023-02-15T15:04:21;13.30;;;11.80;;
4547;SDS011;2286;51.570;7.090;2023-02-15T15:06:57;17.53;;;12.43;;
4547;SDS011;2286;51.570;7.090;2023-02-15T15:09:29;20.83;;;14.23;;
4547;SDS011;2286;51.570;7.090;2023-02-15T15:12:12;16.17;;;12.17;;
4547;SDS011;2286;51.570;7.090;2023-02-15T15:14:41;17.80;;;11.93;;
4547;SDS011;2286;51.570;7.090;2023-02-15T15:17:11;15.90;;;11.20;;
4547;SDS011;2286;51.570;7.090;2023-02-15T15:22:38;17.63;;;11.27;;
4547;SDS011;2286;51.570;7.090;2023-02-15T15:28:10;17.27;;;11.20;;
4547;SDS011;2286;51.570;7.090;2023-02-15T15:31:14;16.60;;;11.73;;
4547;SDS011;2286;51.570;7.090;2023-02-15T15:34:03;14.87;;;11.83;;
4547;SDS011;2286;51.570;7.090;2023-02-15T15:40:16;22.60;;;11.73;;
4547;SDS011;2286;51.570;7.090;2023-02-15T15:43:20;18.03;;;11.83;;
4547;SDS011;2286;51.570;7.090;2023-02-15T15:46:07;15.50;;;10.90;;
4547;SDS011;2286;51.570;7.090;2023-02-15T15:48:50;18.93;;;11.90;;
4547;SDS011;2286;51.570;7.090;2023-02-15T15:51:19;18.80;;;11.27;;
4547;SDS011;2286;51.570;7.090;2023-02-15T15:53:52;16.33;;;11.17;;
4547;SDS011;2286;51.570;7.090;2023-02-15T15:56:21;18.57;;;11.83;;
4547;SDS011;2286;51.570;7.090;2023-02-15T15:58:55;19.73;;;12.93;;
4547;SDS011;2286;51.570;7.090;2023-02-15T16:01:26;17.83;;;12.90;;
4547;SDS011;2286;51.570;7.090;2023-02-15T16:03:54;17.30;;;12.20;;
4547;SDS011;2286;51.570;7.090;2023-02-15T16:06:27;20.27;;;11.60;;